Time;durP1;ratioP1;P1;durP2;ratioP2;P2;SDS_P1;SDS_P2;PMS_P1;PMS_P2;Temp;Humidity;BMP_temperature;BMP_pressure;BME280_temperature;BME280_humidity;BME280_pressure;Samples;Min_cycle;Max_cycle;Signal;HPM_P1;HPM_P2
2023/12/12 00:01:05;;;;;;;33.77;16.90;;;;;;;4.70;100.00;98576.13;4190113;28;20315;-69
2023/12/12 00:03:32;;;;;;;34.97;16.70;;;;;;;4.73;100.00;98573.97;4192238;28;20239;-70
2023/12/12 00:06:00;;;;;;;34.07;16.93;;;;;;;4.88;100.00;98581.44;4192557;28;20240;-73
2023/12/12 00:08:27;;;;;;;35.13;16.33;;;;;;;4.82;100.00;98576.72;4192697;28;20277;-71
2023/12/12 00:10:54;;;;;;;37.20;17.57;;;;;;;4.82;100.00;98588.28;4175599;28;20288;-72
2023/12/12 00:13:20;;;;;;;36.17;16.40;;;;;;;4.86;100.00;98584.28;4194921;28;20268;-68
2023/12/12 00:15:48;;;;;;;36.30;16.23;;;;;;;4.87;100.00;98577.09;4189110;28;20234;-70
2023/12/12 00:18:15;;;;;;;30.37;16.23;;;;;;;4.92;100.00;98582.81;4189111;28;25153;-69
2023/12/12 00:20:43;;;;;;;33.57;16.40;;;;;;;5.00;100.00;98585.56;4173619;28;20307;-69
2023/12/12 00:23:09;;;;;;;38.47;16.73;;;;;;;4.96;100.00;98586.88;4185760;28;20870;-69
2023/12/12 00:25:36;;;;;;;35.03;17.23;;;;;;;4.94;100.00;98588.03;4191030;28;20229;-68
2023/12/12 00:28:03;;;;;;;36.50;16.93;;;;;;;4.73;100.00;98581.19;4181727;28;20255;-66
2023/12/12 00:30:30;;;;;;;31.13;16.33;;;;;;;4.87;100.00;98588.66;4182643;28;22293;-69
2023/12/12 00:32:56;;;;;;;40.00;17.07;;;;;;;4.95;100.00;98592.38;4197623;28;20799;-65
2023/12/12 00:35:24;;;;;;;34.43;16.20;;;;;;;4.87;100.00;98595.88;4190085;28;22929;-68
2023/12/12 00:37:50;;;;;;;31.83;16.17;;;;;;;4.88;100.00;98600.22;4186359;28;20230;-67
2023/12/12 00:40:17;;;;;;;31.60;16.30;;;;;;;4.80;100.00;98594.78;4192122;28;20368;-68
2023/12/12 00:42:44;;;;;;;31.73;15.73;;;;;;;4.78;100.00;98603.00;4183337;28;21574;-68
2023/12/12 00:45:11;;;;;;;31.77;15.83;;;;;;;4.87;100.00;98596.69;4190176;28;21941;-68
2023/12/12 00:47:38;;;;;;;35.10;16.87;;;;;;;4.64;100.00;98592.81;4184964;28;20404;-69
2023/12/12 00:50:05;;;;;;;33.53;16.17;;;;;;;4.43;100.00;98599.34;4179166;28;20237;-69
2023/12/12 00:52:32;;;;;;;32.47;15.73;;;;;;;4.37;100.00;98598.13;4182691;28;20294;-71
2023/12/12 00:54:59;;;;;;;32.53;16.93;;;;;;;4.36;100.00;98600.97;4183476;28;20248;-67
2023/12/12 00:57:27;;;;;;;34.30;16.07;;;;;;;4.21;100.00;98612.22;4186693;28;20457;-67
2023/12/12 00:59:54;;;;;;;33.10;16.90;;;;;;;4.15;100.00;98603.94;4181943;28;21663;-68
2023/12/12 01:02:23;;;;;;;32.13;16.13;;;;;;;4.19;100.00;98613.34;4179436;28;21986;-70
2023/12/12 01:04:50;;;;;;;33.70;16.33;;;;;;;4.17;100.00;98609.97;4174995;28;20243;-66
2023/12/12 01:07:17;;;;;;;33.07;16.03;;;;;;;4.22;100.00;98605.00;4171707;28;20309;-69
2023/12/12 01:09:45;;;;;;;31.00;16.50;;;;;;;4.27;100.00;98616.09;4165604;28;21121;-68
2023/12/12 01:12:11;;;;;;;33.13;16.07;;;;;;;4.15;100.00;98611.97;4198729;28;20993;-66
2023/12/12 01:14:38;;;;;;;32.83;15.87;;;;;;;4.05;100.00;98615.53;4182986;28;20627;-69
2023/12/12 01:17:05;;;;;;;33.97;16.97;;;;;;;4.04;100.00;98618.38;4180037;28;20706;-69
2023/12/12 01:19:31;;;;;;;31.77;16.93;;;;;;;4.06;100.00;98624.44;4188529;28;20232;-69
2023/12/12 01:21:58;;;;;;;36.67;18.03;;;;;;;3.99;100.00;98624.19;4183705;28;21748;-70
2023/12/12 01:24:25;;;;;;;36.60;17.50;;;;;;;4.01;100.00;98629.38;4191581;28;20233;-67
2023/12/12 01:26:52;;;;;;;33.17;17.40;;;;;;;4.06;100.00;98621.75;4175130;28;20241;-70
2023/12/12 01:29:19;;;;;;;37.37;17.73;;;;;;;4.02;100.00;98631.91;4187492;28;22052;-68
2023/12/12 01:31:45;;;;;;;36.20;17.03;;;;;;;4.02;100.00;98631.91;4187821;28;20241;-68
2023/12/12 01:34:12;;;;;;;36.33;18.53;;;;;;;4.03;100.00;98635.44;4183264;28;20577;-66
2023/12/12 01:36:39;;;;;;;38.70;17.90;;;;;;;3.97;100.00;98637.72;4190834;28;21997;-70
2023/12/12 01:39:06;;;;;;;38.83;16.90;;;;;;;3.96;100.00;98638.72;4180706;28;20230;-67
2023/12/12 01:41:32;;;;;;;37.70;17.77;;;;;;;3.94;100.00;98646.03;4186492;28;20230;-66
2023/12/12 01:43:59;;;;;;;38.27;17.60;;;;;;;3.92;100.00;98642.69;4190432;28;22771;-72
2023/12/12 01:46:26;;;;;;;35.17;17.53;;;;;;;3.90;100.00;98642.00;4187460;28;20230;-67
2023/12/12 01:48:53;;;;;;;36.17;17.77;;;;;;;3.87;100.00;98639.59;4182206;28;21088;-67
2023/12/12 01:51:20;;;;;;;42.30;18.80;;;;;;;3.90;100.00;98644.66;4192112;28;20927;-67
2023/12/12 01:53:51;;;;;;;47.07;20.10;;;;;;;3.83;100.00;98648.94;4189601;28;20378;-66
2023/12/12 01:56:18;;;;;;;35.97;18.27;;;;;;;3.83;100.00;98646.25;4185350;28;20335;-66
2023/12/12 01:58:49;;;;;;;43.83;18.93;;;;;;;3.85;100.00;98651.44;4177833;28;21687;-67
2023/12/12 02:01:16;;;;;;;40.43;19.10;;;;;;;3.76;100.00;98643.31;4197076;28;22445;-69
2023/12/12 02:03:44;;;;;;;40.00;19.30;;;;;;;3.77;100.00;98647.69;4188682;28;20233;-68
2023/12/12 02:06:12;;;;;;;45.93;20.53;;;;;;;3.84;100.00;98658.66;4182725;28;20241;-67
2023/12/12 02:08:42;;;;;;;41.90;20.00;;;;;;;3.77;100.00;98666.41;4181106;28;20354;-68
2023/12/12 02:11:09;;;;;;;39.03;20.10;;;;;;;3.72;100.00;98662.50;4202861;28;20612;-66
2023/12/12 02:13:36;;;;;;;44.97;19.07;;;;;;;3.78;100.00;98664.56;4174502;28;27077;-67
2023/12/12 02:16:04;;;;;;;41.60;19.83;;;;;;;3.77;100.00;98663.75;4191945;28;20243;-67
2023/12/12 02:18:30;;;;;;;45.90;20.67;;;;;;;3.72;100.00;98666.03;4193794;28;21812;-72
2023/12/12 02:21:00;;;;;;;45.77;21.13;;;;;;;3.69;100.00;98674.34;4188773;28;21740;-68
2023/12/12 02:23:30;;;;;;;46.53;21.03;;;;;;;3.74;100.00;98676.56;4179667;28;20309;-67
2023/12/12 02:25:59;;;;;;;51.07;22.20;;;;;;;3.67;100.00;98681.66;4185149;28;20351;-69
2023/12/12 02:28:26;;;;;;;48.73;22.20;;;;;;;3.68;100.00;98674.50;4184367;28;20238;-66
2023/12/12 02:30:54;;;;;;;52.13;22.47;;;;;;;3.70;100.00;98675.19;4182013;28;20288;-68
2023/12/12 02:33:21;;;;;;;50.17;22.83;;;;;;;3.70;100.00;98672.53;4172839;28;20433;-69
2023/12/12 02:35:48;;;;;;;53.73;22.47;;;;;;;3.71;100.00;98672.38;4177627;28;20233;-68
2023/12/12 02:38:14;;;;;;;55.77;23.30;;;;;;;3.68;100.00;98669.13;4170600;28;20233;-68
2023/12/12 02:40:41;;;;;;;51.97;22.57;;;;;;;3.71;100.00;98663.47;4185178;28;20332;-67
2023/12/12 02:43:09;;;;;;;47.50;22.23;;;;;;;3.68;100.00;98669.13;4180531;28;23607;-68
2023/12/12 02:45:36;;;;;;;55.70;23.07;;;;;;;3.67;100.00;98667.44;4175921;28;26544;-68
2023/12/12 02:48:03;;;;;;;53.97;23.80;;;;;;;3.77;100.00;98668.25;4183030;28;20317;-68
2023/12/12 02:50:29;;;;;;;61.83;23.90;;;;;;;3.72;100.00;98674.06;4187363;28;20307;-70
2023/12/12 02:52:56;;;;;;;68.20;25.80;;;;;;;3.66;100.00;98671.97;4176171;28;20249;-67
2023/12/12 02:55:23;;;;;;;65.10;24.80;;;;;;;3.71;100.00;98676.84;4194677;28;20235;-67
2023/12/12 02:57:50;;;;;;;64.37;26.67;;;;;;;3.70;100.00;98684.06;4195045;28;20264;-67
2023/12/12 03:00:16;;;;;;;64.63;24.60;;;;;;;3.66;100.00;98680.00;4183677;28;22367;-70
2023/12/12 03:02:43;;;;;;;68.40;26.73;;;;;;;3.67;100.00;98688.84;4178861;28;20339;-67
2023/12/12 03:05:10;;;;;;;66.30;25.93;;;;;;;3.68;100.00;98685.19;4173725;28;20237;-70
2023/12/12 03:07:37;;;;;;;72.73;26.67;;;;;;;3.75;100.00;98694.31;4187212;28;22758;-67
2023/12/12 03:10:04;;;;;;;68.80;26.40;;;;;;;3.77;100.00;98690.50;4173701;28;21491;-69
2023/12/12 03:12:31;;;;;;;76.47;28.70;;;;;;;3.73;100.00;98698.97;4176409;28;20236;-69
2023/12/12 03:14:57;;;;;;;70.73;26.83;;;;;;;3.73;100.00;98698.97;4181462;28;20238;-69
2023/12/12 03:17:24;;;;;;;67.53;25.67;;;;;;;3.73;100.00;98698.97;4180498;28;20244;-67
2023/12/12 03:19:51;;;;;;;79.87;28.13;;;;;;;3.80;100.00;98706.28;4189357;28;20358;-66
2023/12/12 03:22:18;;;;;;;78.97;27.10;;;;;;;3.72;100.00;98705.31;4188767;28;23445;-68
2023/12/12 03:24:45;;;;;;;75.27;26.50;;;;;;;3.66;100.00;98701.41;4181890;28;20299;-69
2023/12/12 03:27:11;;;;;;;82.67;28.33;;;;;;;3.61;100.00;98706.34;4191074;28;20240;-66
2023/12/12 03:29:38;;;;;;;88.93;29.27;;;;;;;3.57;100.00;98711.13;4205582;28;20320;-66
2023/12/12 03:32:05;;;;;;;92.37;30.10;;;;;;;3.56;100.00;98701.41;4188130;28;20320;-68
2023/12/12 03:34:32;;;;;;;87.77;31.17;;;;;;;3.56;100.00;98714.78;4185617;28;22722;-67
2023/12/12 03:36:58;;;;;;;101.77;30.73;;;;;;;3.54;100.00;98716.78;4190566;28;20233;-67
2023/12/12 03:39:25;;;;;;;107.63;30.03;;;;;;;3.56;100.00;98716.63;4189415;28;20712;-69
2023/12/12 03:41:52;;;;;;;112.23;30.23;;;;;;;3.59;100.00;98719.88;4186355;28;20237;-70
2023/12/12 03:44:19;;;;;;;121.57;31.33;;;;;;;3.57;100.00;98721.00;4186074;28;20240;-69
2023/12/12 03:46:46;;;;;;;119.00;32.57;;;;;;;3.54;100.00;98723.94;4189693;28;21021;-68
2023/12/12 03:49:12;;;;;;;97.90;29.40;;;;;;;3.59;100.00;98725.22;4182809;28;20229;-70
2023/12/12 03:51:39;;;;;;;108.00;31.90;;;;;;;3.57;100.00;98726.34;4184002;28;20238;-67
2023/12/12 03:54:06;;;;;;;124.80;32.80;;;;;;;3.54;100.00;98731.97;4188033;28;20245;-69
2023/12/12 03:56:33;;;;;;;124.67;33.20;;;;;;;3.58;100.00;98733.41;4188010;28;20340;-68
2023/12/12 03:58:59;;;;;;;166.30;33.93;;;;;;;3.55;100.00;98737.19;4189316;28;20327;-70
2023/12/12 04:01:26;;;;;;;92.10;31.03;;;;;;;3.62;100.00;98726.75;4189983;28;20238;-67
2023/12/12 04:03:55;;;;;;;138.43;32.80;;;;;;;3.66;100.00;98730.84;4192653;28;20242;-68
2023/12/12 04:06:22;;;;;;;142.10;33.83;;;;;;;3.58;100.00;98731.56;4188257;28;21862;-69
2023/12/12 04:08:50;;;;;;;134.53;34.90;;;;;;;3.60;100.00;98731.41;4184819;28;20233;-68
2023/12/12 04:11:17;;;;;;;158.17;34.13;;;;;;;3.70;100.00;98731.41;4189398;28;20312;-69
2023/12/12 04:13:43;;;;;;;88.40;29.87;;;;;;;3.82;100.00;98738.25;4180635;28;20317;-68
2023/12/12 04:16:10;;;;;;;101.50;30.50;;;;;;;3.74;100.00;98728.25;4188553;28;20289;-67
2023/12/12 04:18:36;;;;;;;110.07;31.70;;;;;;;3.68;100.00;98741.38;4187159;28;20257;-66
2023/12/12 04:21:05;;;;;;;117.70;30.87;;;;;;;3.67;100.00;98747.72;4182803;28;21791;-67
2023/12/12 04:23:32;;;;;;;122.20;33.03;;;;;;;3.60;100.00;98742.09;4185927;28;20236;-69
2023/12/12 04:25:59;;;;;;;93.90;30.47;;;;;;;3.56;100.00;98743.38;4183501;28;20236;-68
2023/12/12 04:28:25;;;;;;;112.23;32.27;;;;;;;3.49;100.00;98738.63;4186551;28;21208;-67
2023/12/12 04:30:52;;;;;;;106.60;31.57;;;;;;;3.49;100.00;98741.28;4181422;28;20461;-67
2023/12/12 04:33:19;;;;;;;99.33;30.43;;;;;;;3.51;100.00;98741.16;4187173;28;20244;-67
2023/12/12 04:35:46;;;;;;;88.83;29.87;;;;;;;3.53;100.00;98754.38;4185218;28;20233;-67
2023/12/12 04:38:12;;;;;;;96.27;30.77;;;;;;;3.54;100.00;98745.34;4176805;28;20238;-65
2023/12/12 04:40:39;;;;;;;94.63;30.10;;;;;;;3.57;100.00;98753.09;4162232;28;23243;-68
2023/12/12 04:43:05;;;;;;;87.97;29.60;;;;;;;3.60;100.00;98747.44;4189105;28;20664;-66
2023/12/12 04:45:32;;;;;;;101.20;30.83;;;;;;;3.65;100.00;98756.75;4186711;28;20244;-68
2023/12/12 04:47:59;;;;;;;84.27;28.23;;;;;;;3.69;100.00;98751.09;4192843;28;20745;-68
2023/12/12 04:50:25;;;;;;;160.77;33.77;;;;;;;3.64;100.00;98748.88;4185385;28;20241;-67
2023/12/12 04:52:52;;;;;;;112.13;31.57;;;;;;;3.58;100.00;98755.63;4190316;28;20928;-67
2023/12/12 04:55:19;;;;;;;153.27;33.00;;;;;;;3.64;100.00;98752.38;4181662;28;20229;-68
2023/12/12 04:57:46;;;;;;;108.13;32.50;;;;;;;3.72;100.00;98753.47;4186365;28;20603;-68
2023/12/12 05:00:13;;;;;;;193.33;35.67;;;;;;;3.70;100.00;98753.63;4165551;28;20238;-69
2023/12/12 05:02:45;;;;;;;335.93;41.90;;;;;;;3.62;100.00;98751.69;4183995;28;21765;-67
2023/12/12 05:05:12;;;;;;;232.13;38.23;;;;;;;3.55;100.00;98755.91;4188992;28;21158;-67
2023/12/12 05:07:39;;;;;;;341.00;40.63;;;;;;;3.54;100.00;98759.59;4179836;28;20231;-69
2023/12/12 05:10:07;;;;;;;391.37;45.40;;;;;;;3.56;100.00;98772.81;4179664;28;20562;-68
2023/12/12 05:12:34;;;;;;;92.23;30.27;;;;;;;3.61;100.00;98767.88;4184060;28;20327;-68
2023/12/12 05:15:02;;;;;;;120.87;34.23;;;;;;;3.59;100.00;98768.03;4183336;28;20264;-67
2023/12/12 05:17:28;;;;;;;452.17;46.77;;;;;;;3.58;100.00;98782.38;4166583;28;21074;-67
2023/12/12 05:19:58;;;;;;;267.07;40.77;;;;;;;3.56;100.00;98786.19;4189577;28;23338;-66
2023/12/12 05:22:25;;;;;;;351.07;41.30;;;;;;;3.48;100.00;98793.13;4191509;28;20281;-67
2023/12/12 05:24:52;;;;;;;396.03;44.90;;;;;;;3.52;100.00;98793.66;4197105;28;21481;-66
2023/12/12 05:27:19;;;;;;;269.00;39.70;;;;;;;3.49;100.00;98797.47;4181680;28;20305;-67
2023/12/12 05:29:45;;;;;;;327.93;41.73;;;;;;;3.46;100.00;98797.75;4187034;28;20234;-68
2023/12/12 05:32:12;;;;;;;425.00;49.07;;;;;;;3.46;100.00;98800.44;4182905;28;20247;-67
2023/12/12 05:34:39;;;;;;;376.27;43.87;;;;;;;3.48;100.00;98802.94;4181651;28;20244;-67
2023/12/12 05:37:08;;;;;;;221.20;38.70;;;;;;;3.54;100.00;98807.75;4178658;28;20233;-69
2023/12/12 05:39:35;;;;;;;151.93;36.10;;;;;;;3.60;100.00;98815.22;4187602;28;20355;-67
2023/12/12 05:42:02;;;;;;;264.50;39.93;;;;;;;3.58;100.00;98817.16;4185386;28;20396;-68
2023/12/12 05:44:31;;;;;;;198.27;37.50;;;;;;;3.57;100.00;98812.81;4183539;28;21733;-68
2023/12/12 05:46:58;;;;;;;197.63;36.07;;;;;;;3.50;100.00;98817.03;4178321;28;20272;-67
2023/12/12 05:49:25;;;;;;;251.53;38.97;;;;;;;3.51;100.00;98817.91;4186775;28;20238;-69
2023/12/12 05:51:51;;;;;;;153.33;36.23;;;;;;;3.53;100.00;98819.44;4181134;28;21875;-69
2023/12/12 05:54:18;;;;;;;191.57;38.03;;;;;;;3.51;100.00;98832.09;4184785;28;20248;-68
2023/12/12 05:56:47;;;;;;;162.00;36.17;;;;;;;3.53;100.00;98826.59;4182589;28;20241;-69
2023/12/12 05:59:14;;;;;;;127.87;33.60;;;;;;;3.60;100.00;98833.94;4183395;28;20490;-67
2023/12/12 06:01:42;;;;;;;164.97;35.97;;;;;;;3.58;100.00;98837.75;4194442;28;20225;-67
2023/12/12 06:04:12;;;;;;;146.80;35.93;;;;;;;3.57;100.00;98844.06;4181410;28;20693;-70
2023/12/12 06:06:41;;;;;;;145.33;34.93;;;;;;;3.56;100.00;98847.75;4165679;28;20612;-67
2023/12/12 06:09:09;;;;;;;144.13;34.90;;;;;;;3.53;100.00;98846.19;4179741;28;20235;-67
2023/12/12 06:11:36;;;;;;;123.40;33.53;;;;;;;3.58;100.00;98849.28;4164082;28;20366;-69
2023/12/12 06:14:05;;;;;;;168.93;42.07;;;;;;;3.58;100.00;98849.28;4177210;28;20668;-70
2023/12/12 06:16:33;;;;;;;183.40;37.30;;;;;;;3.55;100.00;98862.09;4183073;28;20237;-68
2023/12/12 06:19:04;;;;;;;169.93;36.47;;;;;;;3.55;100.00;98857.56;4184705;28;20229;-70
2023/12/12 06:21:32;;;;;;;260.77;38.50;;;;;;;3.59;100.00;98863.50;4178571;28;20225;-70
2023/12/12 06:24:02;;;;;;;265.00;40.60;;;;;;;3.57;100.00;98866.31;4181061;28;20972;-68
2023/12/12 06:26:30;;;;;;;221.73;38.07;;;;;;;3.59;100.00;98859.00;4189256;28;20238;-69
2023/12/12 06:28:57;;;;;;;436.83;48.13;;;;;;;3.61;100.00;98869.56;4194190;28;20240;-71
2023/12/12 06:31:24;;;;;;;342.37;45.27;;;;;;;3.63;100.00;98865.75;4158121;28;20240;-68
2023/12/12 06:33:51;;;;;;;308.30;41.90;;;;;;;3.62;100.00;98865.91;4183571;28;21144;-70
2023/12/12 06:36:19;;;;;;;119.60;32.83;;;;;;;3.71;100.00;98874.91;4186819;28;21397;-70
2023/12/12 06:38:45;;;;;;;244.73;39.47;;;;;;;3.67;100.00;98877.00;4186021;28;21127;-69
2023/12/12 06:41:12;;;;;;;171.17;36.90;;;;;;;3.77;100.00;98885.06;4180077;28;22997;-68
2023/12/12 06:43:39;;;;;;;300.23;44.40;;;;;;;3.68;100.00;98899.28;4186888;28;20281;-69
2023/12/12 06:46:07;;;;;;;411.97;49.57;;;;;;;3.67;100.00;98894.91;4204849;28;20242;-68
2023/12/12 06:48:37;;;;;;;194.13;38.20;;;;;;;3.69;100.00;98896.44;4191736;28;22033;-71
2023/12/12 06:51:07;;;;;;;138.00;37.40;;;;;;;3.85;100.00;98895.03;4188994;28;20342;-70
2023/12/12 06:53:36;;;;;;;184.23;40.97;;;;;;;3.78;100.00;98897.44;4188441;28;20546;-72
2023/12/12 06:56:04;;;;;;;630.00;62.13;;;;;;;3.61;100.00;98907.88;4213965;28;23549;-69
2023/12/12 06:58:30;;;;;;;469.23;51.20;;;;;;;3.69;100.00;98909.84;4208787;28;20252;-73
2023/12/12 07:00:57;;;;;;;214.97;39.40;;;;;;;3.76;100.00;98897.56;4183927;28;20851;-71
2023/12/12 07:03:24;;;;;;;372.73;47.97;;;;;;;3.70;100.00;98906.19;4185205;28;20236;-71
2023/12/12 07:05:51;;;;;;;420.60;49.87;;;;;;;3.64;100.00;98907.56;4194427;28;20303;-73
2023/12/12 07:08:19;;;;;;;407.63;49.47;;;;;;;3.71;100.00;98912.38;4187087;28;20802;-71
2023/12/12 07:10:46;;;;;;;571.10;56.53;;;;;;;3.62;100.00;98912.25;4190364;28;20614;-71
2023/12/12 07:13:14;;;;;;;238.17;40.53;;;;;;;3.71;100.00;98918.56;4187474;28;22016;-72
2023/12/12 07:15:41;;;;;;;268.17;41.83;;;;;;;3.75;100.00;98914.63;4204592;28;20470;-71
2023/12/12 07:18:12;;;;;;;183.53;40.60;;;;;;;3.73;100.00;98913.06;4193115;28;21943;-72
2023/12/12 07:20:44;;;;;;;574.83;54.73;;;;;;;3.81;100.00;98913.22;4190088;28;20293;-72
2023/12/12 07:23:10;;;;;;;145.03;36.67;;;;;;;3.88;100.00;98914.34;4198460;28;20252;-71
2023/12/12 07:25:40;;;;;;;255.20;43.10;;;;;;;3.88;100.00;98911.66;4206369;28;20703;-70
2023/12/12 07:28:07;;;;;;;238.47;43.17;;;;;;;3.77;100.00;98907.31;4199300;28;20280;-71
2023/12/12 07:30:34;;;;;;;235.63;40.97;;;;;;;3.77;100.00;98915.31;4192130;28;20505;-71
2023/12/12 07:33:01;;;;;;;241.30;42.77;;;;;;;3.75;100.00;98925.31;4198207;28;20252;-71
2023/12/12 07:35:28;;;;;;;301.43;42.03;;;;;;;3.72;100.00;98932.78;4207637;28;20242;-72
2023/12/12 07:37:54;;;;;;;112.97;33.07;;;;;;;3.87;100.00;98930.56;4182024;28;22852;-71
2023/12/12 07:40:21;;;;;;;160.57;36.40;;;;;;;4.03;100.00;98935.31;4193228;28;26004;-72
2023/12/12 07:42:48;;;;;;;149.43;35.73;;;;;;;4.00;100.00;98938.28;4176737;28;20415;-73
2023/12/12 07:45:15;;;;;;;259.43;40.67;;;;;;;3.91;100.00;98943.50;4203408;28;21725;-70
2023/12/12 07:47:42;;;;;;;328.33;44.80;;;;;;;3.86;100.00;98942.25;4205877;28;20667;-73
2023/12/12 07:50:10;;;;;;;253.73;39.67;;;;;;;3.84;100.00;98945.06;4189170;28;20248;-71
2023/12/12 07:52:37;;;;;;;217.97;43.10;;;;;;;3.93;100.00;98943.38;4186679;28;20241;-72
2023/12/12 07:55:05;;;;;;;188.40;37.57;;;;;;;3.97;100.00;98952.78;4196852;28;21885;-72
2023/12/12 07:57:32;;;;;;;125.03;34.07;;;;;;;3.84;100.00;98953.09;4188716;28;20238;-71
2023/12/12 08:00:00;;;;;;;159.43;38.33;;;;;;;3.97;100.00;98961.69;4192484;28;20237;-71
2023/12/12 08:02:27;;;;;;;144.13;35.77;;;;;;;4.01;100.00;98969.41;4195825;28;22017;-72
2023/12/12 08:04:54;;;;;;;297.50;46.20;;;;;;;3.92;100.00;98965.75;4191848;28;20234;-72
2023/12/12 08:07:21;;;;;;;280.77;52.20;;;;;;;3.94;100.00;98980.69;4168576;28;20759;-72
2023/12/12 08:09:48;;;;;;;195.63;46.57;;;;;;;3.92;100.00;98971.97;4194113;28;20681;-72
2023/12/12 08:12:15;;;;;;;259.43;48.13;;;;;;;3.93;100.00;98978.16;4202554;28;20260;-74
2023/12/12 08:14:41;;;;;;;160.73;40.20;;;;;;;3.92;100.00;98971.97;4185540;28;21575;-72
2023/12/12 08:17:11;;;;;;;262.53;44.00;;;;;;;3.92;100.00;98987.19;4182312;28;21702;-72
2023/12/12 08:19:38;;;;;;;416.43;49.07;;;;;;;3.91;100.00;98981.00;4191498;28;21348;-74
2023/12/12 08:22:05;;;;;;;363.37;46.90;;;;;;;3.84;100.00;98989.72;4193517;28;25481;-71
2023/12/12 08:24:32;;;;;;;304.73;45.23;;;;;;;3.91;100.00;98991.69;4202151;28;22030;-71
2023/12/12 08:26:59;;;;;;;247.63;41.40;;;;;;;3.86;100.00;98991.25;4198889;28;20377;-70
2023/12/12 08:29:26;;;;;;;207.20;41.17;;;;;;;3.87;100.00;98995.63;4194962;28;20243;-71
2023/12/12 08:31:57;;;;;;;518.77;54.43;;;;;;;3.78;100.00;99004.50;4182491;28;20233;-72
2023/12/12 08:34:24;;;;;;;331.03;47.60;;;;;;;3.69;100.00;99000.00;4199012;28;20292;-74
2023/12/12 08:36:51;;;;;;;466.50;52.10;;;;;;;3.73;100.00;99004.94;4227626;28;20226;-71
2023/12/12 08:39:18;;;;;;;322.63;46.67;;;;;;;3.70;100.00;99015.91;4192954;28;21146;-71
2023/12/12 08:41:45;;;;;;;253.03;45.43;;;;;;;3.78;100.00;99005.34;4201362;28;20229;-71
2023/12/12 08:44:11;;;;;;;419.37;51.53;;;;;;;3.85;100.00;99012.81;4202645;28;20240;-71
2023/12/12 08:46:38;;;;;;;149.90;37.37;;;;;;;3.93;100.00;99004.94;4200515;28;21648;-69
2023/12/12 08:49:06;;;;;;;155.77;39.30;;;;;;;4.06;100.00;99016.22;4189565;28;20238;-70
2023/12/12 08:51:34;;;;;;;456.90;57.23;;;;;;;4.15;100.00;99017.22;4198415;28;21782;-69
2023/12/12 08:54:02;;;;;;;365.10;52.87;;;;;;;4.09;100.00;99026.66;4211614;28;20245;-69
2023/12/12 08:56:29;;;;;;;358.20;52.77;;;;;;;4.15;100.00;99027.06;4183183;28;20822;-70
2023/12/12 08:58:56;;;;;;;407.70;55.03;;;;;;;4.00;100.00;99027.50;4198224;28;20342;-72
2023/12/12 09:01:22;;;;;;;403.50;53.30;;;;;;;3.96;100.00;99036.81;4196842;28;20226;-69
2023/12/12 09:03:53;;;;;;;224.23;45.37;;;;;;;4.05;100.00;99035.09;4182949;28;23183;-72
2023/12/12 09:06:20;;;;;;;172.83;38.20;;;;;;;4.15;100.00;99038.66;4205447;28;20874;-70
2023/12/12 09:08:47;;;;;;;175.37;35.23;;;;;;;4.11;100.00;99035.41;4199877;28;21119;-71
2023/12/12 09:11:14;;;;;;;173.43;35.77;;;;;;;4.03;100.00;99021.00;4186432;28;20315;-71
2023/12/12 09:13:45;;;;;;;119.37;29.47;;;;;;;4.18;100.00;99032.16;4185967;28;20248;-71
2023/12/12 09:16:12;;;;;;;100.97;27.20;;;;;;;4.15;100.00;99029.75;4187945;28;20348;-70
2023/12/12 09:18:39;;;;;;;81.07;24.37;;;;;;;4.28;100.00;99032.97;4203144;28;22864;-74
2023/12/12 09:21:06;;;;;;;82.30;24.37;;;;;;;4.20;100.00;99039.06;4190970;28;20237;-71
2023/12/12 09:23:38;;;;;;;87.23;24.97;;;;;;;4.31;100.00;99037.19;4183323;28;25480;-73
2023/12/12 09:26:04;;;;;;;68.20;21.77;;;;;;;4.34;100.00;99040.47;4225196;28;20284;-70
2023/12/12 09:28:31;;;;;;;69.67;23.50;;;;;;;4.45;100.00;99047.50;4193512;28;20339;-71
2023/12/12 09:30:58;;;;;;;68.47;21.90;;;;;;;4.38;100.00;99046.38;4198373;28;20238;-71
2023/12/12 09:33:25;;;;;;;70.17;21.97;;;;;;;4.41;100.00;99052.31;4214884;28;20288;-70
2023/12/12 09:35:52;;;;;;;63.87;22.43;;;;;;;4.39;100.00;99053.41;4190416;28;20610;-72
2023/12/12 09:38:18;;;;;;;63.43;21.80;;;;;;;4.34;100.00;99061.03;4205139;28;22164;-71
2023/12/12 09:40:45;;;;;;;70.70;22.53;;;;;;;4.37;100.00;99061.59;4190831;28;20243;-72
2023/12/12 09:43:14;;;;;;;63.57;21.93;;;;;;;4.36;100.00;99065.28;4189411;28;20253;-72
2023/12/12 09:45:46;;;;;;;63.07;21.73;;;;;;;4.34;100.00;99069.94;4196757;28;21942;-71
2023/12/12 09:48:17;;;;;;;59.37;20.90;;;;;;;4.30;100.00;99073.03;4200536;28;20233;-73
2023/12/12 09:50:46;;;;;;;55.10;19.53;;;;;;;4.33;100.00;99083.47;4184496;28;20252;-72
2023/12/12 09:53:14;;;;;;;44.83;19.30;;;;;;;4.21;100.00;99088.97;4182566;28;21765;-70
2023/12/12 09:55:41;;;;;;;44.20;17.30;;;;;;;4.20;100.00;99094.44;4184717;28;24929;-70
2023/12/12 09:58:09;;;;;;;36.80;13.53;;;;;;;4.05;100.00;99096.69;4195133;28;22606;-71
2023/12/12 10:00:36;;;;;;;31.63;13.50;;;;;;;3.97;100.00;99105.41;4187643;28;22560;-69
2023/12/12 10:03:05;;;;;;;36.83;13.87;;;;;;;3.88;100.00;99104.41;4201752;28;20408;-68
2023/12/12 10:05:38;;;;;;;36.53;13.93;;;;;;;3.83;100.00;99101.31;4181941;28;21591;-71
2023/12/12 10:08:05;;;;;;;34.10;13.07;;;;;;;3.67;100.00;99109.84;4187819;28;20571;-70
2023/12/12 10:10:41;;;;;;;29.10;12.43;;;;;;;3.62;100.00;99110.28;4204735;28;20248;-70
2023/12/12 10:13:09;;;;;;;29.27;13.00;;;;;;;3.60;100.00;99114.03;4181025;28;20244;-69
2023/12/12 10:15:36;;;;;;;32.10;12.70;;;;;;;3.60;100.00;99114.91;4187222;28;20248;-69
2023/12/12 10:18:03;;;;;;;31.27;12.10;;;;;;;3.59;100.00;99129.25;4192209;28;20229;-72
2023/12/12 10:20:31;;;;;;;31.77;12.50;;;;;;;3.67;100.00;99125.06;4180843;28;20237;-68
2023/12/12 10:23:04;;;;;;;28.90;11.63;;;;;;;3.71;100.00;99132.69;4183238;28;22135;-70
2023/12/12 10:25:33;;;;;;;25.40;10.23;;;;;;;3.71;100.00;99127.34;4193449;28;20242;-75
2023/12/12 10:28:00;;;;;;;22.57;10.33;;;;;;;3.53;100.00;99136.97;4188859;28;20561;-75
2023/12/12 10:30:27;;;;;;;28.80;11.47;;;;;;;3.28;100.00;99123.09;4183276;28;20231;-72
2023/12/12 10:32:55;;;;;;;24.57;9.93;;;;;;;3.62;100.00;99134.34;4188920;28;21651;-68
2023/12/12 10:35:24;;;;;;;25.13;11.07;;;;;;;3.65;100.00;99126.03;4189087;28;20304;-69
2023/12/12 10:37:51;;;;;;;25.80;12.07;;;;;;;3.83;100.00;99127.22;4183956;28;21518;-67
2023/12/12 10:40:21;;;;;;;22.63;10.93;;;;;;;3.82;100.00;99131.72;4178219;28;20409;-68
2023/12/12 10:42:49;;;;;;;25.07;11.37;;;;;;;3.97;100.00;99135.72;4189517;28;20238;-68
2023/12/12 10:45:17;;;;;;;24.93;11.63;;;;;;;3.95;100.00;99132.31;4188094;28;20252;-71
2023/12/12 10:47:49;;;;;;;24.87;11.30;;;;;;;3.86;100.00;99140.34;4171444;28;20237;-67
2023/12/12 10:50:18;;;;;;;24.17;11.03;;;;;;;3.84;100.00;99153.00;4187496;28;20225;-69
2023/12/12 10:52:47;;;;;;;26.07;10.67;;;;;;;3.75;100.00;99152.00;4190901;28;20356;-69
2023/12/12 10:55:16;;;;;;;26.63;11.50;;;;;;;3.79;100.00;99158.75;4180245;28;20234;-71
2023/12/12 10:57:45;;;;;;;24.53;11.70;;;;;;;3.83;100.00;99164.69;4185602;28;20232;-68
2023/12/12 11:00:14;;;;;;;30.07;13.47;;;;;;;3.72;100.00;99171.00;4180938;28;23754;-70
2023/12/12 11:02:45;;;;;;;42.40;17.80;;;;;;;3.68;100.00;99167.75;4190590;28;21755;-69
2023/12/12 11:05:14;;;;;;;44.27;22.73;;;;;;;3.69;100.00;99171.28;4187011;28;21935;-67
2023/12/12 11:07:47;;;;;;;31.17;15.63;;;;;;;3.71;100.00;99174.66;4190039;28;21744;-69
2023/12/12 11:10:18;;;;;;;34.83;13.13;;;;;;;3.41;100.00;99169.19;4193912;28;20237;-69
2023/12/12 11:12:51;;;;;;;33.10;13.07;;;;;;;3.11;100.00;99178.00;4184812;28;20608;-70
2023/12/12 11:15:19;;;;;;;27.40;12.37;;;;;;;3.25;100.00;99180.31;4184391;28;21128;-70